Time;durP1;ratioP1;P1;durP2;ratioP2;P2;SDS_P1;SDS_P2;PMS_P1;PMS_P2;Temp;Humidity;BMP_temperature;BMP_pressure;BME280_temperature;BME280_humidity;BME280_pressure;Samples;Min_cycle;Max_cycle;Signal;HPM_P1;HPM_P2
2022/05/31 04:26:23;;;;;;;9.23;4.13;;;;;;;10.43;69.34;101416.94;5017074;28;120803;-34
2022/05/31 04:28:49;;;;;;;8.27;3.58;;;;;;;10.44;70.68;101415.97;4995522;28;100851;-34
2022/05/31 04:31:14;;;;;;;10.00;3.85;;;;;;;10.51;70.01;101434.56;5014173;28;99079;-34
2022/05/31 04:33:40;;;;;;;6.82;3.40;;;;;;;10.46;69.37;101416.78;5014200;28;96475;-35
2022/05/31 04:36:10;;;;;;;8.55;3.92;;;;;;;10.49;69.41;101424.78;4994793;28;96646;-34
2022/05/31 04:38:36;;;;;;;6.05;3.83;;;;;;;10.54;69.88;101426.28;5013162;28;99498;-34
2022/05/31 04:41:02;;;;;;;6.93;3.08;;;;;;;10.57;69.80;101425.22;4995740;28;101420;-34
2022/05/31 04:43:28;;;;;;;6.57;3.22;;;;;;;10.55;69.72;101422.59;4995784;28;96750;-34
2022/05/31 04:45:53;;;;;;;10.30;4.35;;;;;;;10.56;69.56;101421.66;5014166;28;96746;-34
2022/05/31 04:48:19;;;;;;;10.15;3.35;;;;;;;10.61;69.72;101424.13;5012865;28;121741;-34
2022/05/31 04:50:44;;;;;;;43.53;12.73;;;;;;;10.59;69.50;101410.66;5013737;28;97938;-34
2022/05/31 04:53:10;;;;;;;18.35;6.72;;;;;;;10.64;69.25;101421.25;5014260;28;96601;-34
2022/05/31 04:55:36;;;;;;;23.98;7.88;;;;;;;10.70;69.08;101425.44;5014219;28;96809;-34
2022/05/31 04:58:01;;;;;;;8.90;4.40;;;;;;;10.69;69.26;101427.28;4995530;28;100757;-34
2022/05/31 05:00:27;;;;;;;20.65;6.00;;;;;;;10.73;69.74;101430.72;5012546;28;126444;-34
2022/05/31 05:02:52;;;;;;;15.80;5.88;;;;;;;10.65;70.20;101409.44;5012850;28;96632;-34
2022/05/31 05:05:17;;;;;;;17.67;5.30;;;;;;;10.72;69.87;101426.25;5013781;28;96858;-34
2022/05/31 05:07:42;;;;;;;44.63;11.40;;;;;;;10.70;69.64;101406.50;5013007;28;103481;-34
2022/05/31 05:10:08;;;;;;;20.05;6.97;;;;;;;10.75;70.02;101416.16;5013185;28;99081;-34
2022/05/31 05:12:34;;;;;;;7.28;3.78;;;;;;;10.81;68.92;101423.06;5013173;28;96569;-34
2022/05/31 05:15:00;;;;;;;13.35;3.88;;;;;;;10.78;69.06;101404.25;4995304;28;96822;-34
2022/05/31 05:17:25;;;;;;;9.13;4.85;;;;;;;10.85;68.86;101408.41;5013414;28;97429;-34
2022/05/31 05:19:51;;;;;;;6.07;3.85;;;;;;;10.84;69.68;101395.78;4978863;28;100727;-34
2022/05/31 05:22:16;;;;;;;8.45;4.38;;;;;;;10.91;68.96;101394.50;4995194;28;96760;-34
2022/05/31 05:24:42;;;;;;;7.65;3.60;;;;;;;10.96;69.76;101399.66;5013027;28;96804;-35
2022/05/31 05:27:07;;;;;;;9.40;4.13;;;;;;;11.03;69.07;101403.78;5012613;28;99234;-34
2022/05/31 05:32:16;;;;;;;7.18;3.72;;;;;;;11.05;69.03;101397.31;5013237;28;96569;-34
2022/05/31 05:34:42;;;;;;;7.35;3.72;;;;;;;11.10;68.71;101398.91;5013328;28;96792;-34
2022/05/31 05:37:07;;;;;;;8.05;3.72;;;;;;;11.15;68.31;101397.69;5012091;28;127347;-34
2022/05/31 05:39:32;;;;;;;7.55;3.80;;;;;;;11.19;68.45;101398.41;5012613;28;99311;-34
2022/05/31 05:41:58;;;;;;;7.78;3.92;;;;;;;11.24;68.36;101405.31;5013038;28;96585;-34
2022/05/31 05:44:25;;;;;;;11.27;4.22;;;;;;;11.30;68.69;101401.41;5012682;28;113212;-35
2022/05/31 05:46:50;;;;;;;9.13;3.83;;;;;;;11.29;68.23;101399.66;4994134;28;101055;-34
2022/05/31 05:49:16;;;;;;;7.32;3.63;;;;;;;11.32;68.29;101385.94;5012044;28;116952;-35
2022/05/31 05:51:41;;;;;;;6.85;4.00;;;;;;;11.43;68.08;101402.47;4993901;28;105754;-35
2022/05/31 05:54:07;;;;;;;14.15;4.18;;;;;;;11.44;68.21;101390.66;4994716;28;96887;-35
2022/05/31 05:56:32;;;;;;;6.78;3.80;;;;;;;11.45;67.86;101388.81;5012812;28;98200;-35
2022/05/31 05:58:58;;;;;;;11.07;4.25;;;;;;;11.52;68.24;101389.34;4994527;28;98806;-35
2022/05/31 06:01:29;;;;;;;9.50;4.00;;;;;;;11.61;67.97;101394.25;5012520;28;96718;-34
2022/05/31 06:04:04;;;;;;;7.45;3.50;;;;;;;11.64;68.13;101384.09;4994665;28;96750;-35
2022/05/31 06:06:32;;;;;;;8.80;3.80;;;;;;;11.73;67.69;101389.94;4995346;28;99834;-34
2022/05/31 06:09:02;;;;;;;8.88;3.75;;;;;;;11.79;68.22;101392.31;4995560;28;96547;-34
2022/05/31 06:11:35;;;;;;;8.95;4.65;;;;;;;11.85;67.79;101386.53;4994355;28;96827;-34
2022/05/31 06:14:09;;;;;;;9.60;4.65;;;;;;;12.02;67.38;101391.00;4994454;28;96921;-35
2022/05/31 06:16:41;;;;;;;6.95;4.20;;;;;;;12.12;67.29;101394.94;4994028;28;100668;-34
2022/05/31 06:19:15;;;;;;;7.63;3.97;;;;;;;12.20;66.90;101391.75;4994263;28;101145;-35
2022/05/31 06:21:43;;;;;;;11.32;4.40;;;;;;;12.18;66.79;101391.84;4994505;28;96616;-34
2022/05/31 06:24:08;;;;;;;11.02;3.75;;;;;;;12.23;66.63;101389.75;4994210;28;96818;-34
2022/05/31 06:26:34;;;;;;;10.02;4.75;;;;;;;12.29;66.78;101381.19;5012094;28;97379;-35
2022/05/31 06:28:59;;;;;;;12.85;4.72;;;;;;;12.37;67.03;101375.31;5011827;28;97965;-35
2022/05/31 06:31:24;;;;;;;9.13;4.63;;;;;;;12.46;66.55;101380.19;5011583;28;108917;-35
2022/05/31 06:33:50;;;;;;;11.68;4.35;;;;;;;12.58;65.82;101383.13;5011673;28;116078;-34
2022/05/31 06:36:15;;;;;;;7.53;4.07;;;;;;;12.68;65.87;101377.03;5011836;28;99272;-34
2022/05/31 06:38:41;;;;;;;11.43;4.85;;;;;;;12.75;65.90;101385.66;5011763;28;99108;-35
2022/05/31 06:41:07;;;;;;;9.45;4.65;;;;;;;12.79;65.48;101370.91;4993629;28;97093;-35
2022/05/31 06:43:33;;;;;;;13.57;4.57;;;;;;;12.93;65.49;101387.25;5012114;28;96845;-34
2022/05/31 06:46:03;;;;;;;9.60;4.32;;;;;;;12.98;65.50;101383.38;4993817;28;98994;-34
2022/05/31 06:48:28;;;;;;;12.00;4.63;;;;;;;12.98;65.11;101377.94;4993657;28;100921;-35
2022/05/31 06:50:54;;;;;;;7.63;4.40;;;;;;;13.05;65.22;101377.44;5011045;28;121618;-34
2022/05/31 06:58:47;;;;;;;12.05;4.13;;;;;;;13.60;64.30;101381.19;5011118;28;96919;-35
2022/05/31 07:01:12;;;;;;;7.88;4.32;;;;;;;13.88;63.20;101382.97;5014377;28;122219;-35
2022/05/31 07:03:38;;;;;;;9.73;4.72;;;;;;;14.07;62.61;101389.91;5015670;28;96914;-35
2022/05/31 07:06:03;;;;;;;7.20;3.95;;;;;;;14.31;61.60;101396.41;5014816;28;97855;-35
2022/05/31 07:08:28;;;;;;;9.25;4.10;;;;;;;14.44;61.54;101383.69;5015141;28;104313;-35
2022/05/31 07:10:54;;;;;;;10.98;5.28;;;;;;;14.60;60.14;101379.91;5014667;28;117395;-35
2022/05/31 07:13:20;;;;;;;7.55;4.38;;;;;;;14.77;60.48;101393.22;4997354;28;96842;-34
2022/05/31 07:15:46;;;;;;;10.48;4.78;;;;;;;14.68;60.84;101379.34;5015161;28;98137;-34
2022/05/31 07:18:11;;;;;;;9.15;4.43;;;;;;;14.65;60.71;101384.03;5014185;28;123638;-35
2022/05/31 07:20:36;;;;;;;13.05;4.22;;;;;;;14.71;60.82;101392.81;4996498;28;116218;-34
2022/05/31 07:23:02;;;;;;;7.07;3.60;;;;;;;14.75;60.67;101389.72;4997476;28;96872;-35
2022/05/31 07:25:27;;;;;;;9.15;4.25;;;;;;;14.77;60.66;101384.16;5014501;28;98246;-34
2022/05/31 07:27:53;;;;;;;15.10;4.05;;;;;;;14.74;60.86;101387.13;5014856;28;98228;-34
2022/05/31 07:30:18;;;;;;;8.82;4.13;;;;;;;14.77;60.89;101387.75;5014293;28;96747;-35
2022/05/31 07:32:44;;;;;;;9.02;4.22;;;;;;;14.97;60.92;101382.72;5014927;28;96851;-34
2022/05/31 07:35:10;;;;;;;9.70;4.15;;;;;;;15.15;59.88;101378.69;5014861;28;97369;-34
2022/05/31 07:37:35;;;;;;;9.80;3.42;;;;;;;15.19;60.16;101374.78;4996703;28;101120;-35
2022/05/31 07:40:02;;;;;;;11.70;4.07;;;;;;;15.25;59.65;101374.34;5014786;28;96475;-34
2022/05/31 07:42:27;;;;;;;9.98;4.85;;;;;;;15.34;59.83;101386.41;4996928;28;96843;-34
2022/05/31 07:44:54;;;;;;;7.10;3.90;;;;;;;15.28;58.86;101367.78;5013926;28;126555;-34
2022/05/31 07:47:20;;;;;;;7.28;3.20;;;;;;;15.23;59.27;101370.84;5015011;28;97805;-36
2022/05/31 07:49:45;;;;;;;12.15;3.83;;;;;;;15.28;58.27;101368.63;5014487;28;98391;-35
2022/05/31 07:52:11;;;;;;;7.90;4.07;;;;;;;15.40;59.32;101374.19;5014259;28;107836;-35
2022/05/31 07:54:36;;;;;;;13.70;4.20;;;;;;;15.50;59.38;101373.38;5014156;28;97883;-34
2022/05/31 07:57:06;;;;;;;10.25;4.05;;;;;;;15.64;58.83;101366.91;5014967;28;97432;-34
2022/05/31 07:59:33;;;;;;;11.95;4.43;;;;;;;15.64;58.70;101366.91;4996439;28;96704;-34
2022/05/31 08:01:58;;;;;;;6.65;4.00;;;;;;;15.61;58.79;101361.69;4996549;28;96779;-34
2022/05/31 08:04:24;;;;;;;10.50;3.85;;;;;;;15.51;58.60;101364.19;5014788;28;97375;-35
2022/05/31 08:06:51;;;;;;;10.05;4.10;;;;;;;15.49;59.31;101358.00;5014105;28;99133;-35
2022/05/31 08:09:16;;;;;;;6.55;3.53;;;;;;;15.38;58.97;101359.78;5014187;28;96541;-34
2022/05/31 08:11:41;;;;;;;11.30;4.45;;;;;;;15.44;59.29;101364.78;5014283;28;96832;-34
2022/05/31 08:14:07;;;;;;;8.48;4.38;;;;;;;15.48;59.44;101369.91;5013430;28;127073;-34
2022/05/31 08:16:34;;;;;;;13.27;4.72;;;;;;;15.58;59.34;101359.16;5013987;28;99191;-35
2022/05/31 08:19:00;;;;;;;14.10;4.60;;;;;;;15.97;58.13;101367.22;4995751;28;97305;-34
2022/05/31 08:21:30;;;;;;;13.95;5.35;;;;;;;16.38;57.42;101369.53;4996056;28;97070;-34
2022/05/31 08:23:57;;;;;;;11.70;5.43;;;;;;;16.60;56.62;101357.78;5013855;28;99208;-34
2022/05/31 08:26:23;;;;;;;12.93;4.82;;;;;;;16.66;56.70;101353.66;4995451;28;100727;-34
2022/05/31 08:28:49;;;;;;;10.88;4.88;;;;;;;16.70;56.19;101355.19;5014185;28;96672;-36
2022/05/31 08:31:20;;;;;;;8.98;4.75;;;;;;;16.85;56.00;101354.00;5013687;28;96470;-34
2022/05/31 08:33:45;;;;;;;14.82;5.32;;;;;;;17.02;54.61;101354.47;4995907;28;101054;-34
2022/05/31 08:36:11;;;;;;;12.23;4.97;;;;;;;17.03;54.68;101358.97;5014346;28;97453;-34
2022/05/31 08:38:36;;;;;;;9.90;5.38;;;;;;;17.16;54.18;101363.34;5014184;28;96692;-34
2022/05/31 08:41:29;;;;;;;8.50;4.38;;;;;;;17.16;53.23;101357.88;5013959;28;96815;-34
2022/05/31 08:44:12;;;;;;;11.60;4.18;;;;;;;17.12;51.47;101356.38;4995096;28;100909;-34
2022/05/31 08:47:02;;;;;;;5.90;2.97;;;;;;;16.93;52.54;101356.97;5013614;28;99632;-34
2022/05/31 08:53:07;;;;;;;8.65;3.20;;;;;;;17.05;51.93;101362.47;5011517;28;96531;-34
2022/05/31 08:58:28;;;;;;;7.10;3.53;;;;;;;17.43;50.38;101342.03;5013849;28;97050;-34
2022/05/31 09:00:57;;;;;;;9.05;3.13;;;;;;;17.71;51.25;101352.44;4995701;28;96862;-34
2022/05/31 09:03:30;;;;;;;13.80;3.70;;;;;;;17.85;50.58;101351.28;4995875;28;96828;-35
2022/05/31 09:06:07;;;;;;;4.40;2.53;;;;;;;18.14;48.34;101351.59;5013577;28;97456;-34
2022/05/31 09:08:32;;;;;;;9.75;3.40;;;;;;;18.42;50.25;101347.34;4995269;28;100739;-34
2022/05/31 09:11:12;;;;;;;10.55;3.60;;;;;;;18.65;45.33;101336.22;5012400;28;96831;-35
2022/05/31 09:14:08;;;;;;;5.30;2.90;;;;;;;18.83;45.17;101344.72;4995477;28;96856;-35
2022/05/31 09:16:47;;;;;;;8.57;3.13;;;;;;;19.07;46.80;101344.44;4995225;28;101117;-34
2022/05/31 09:19:26;;;;;;;5.90;2.65;;;;;;;18.99;45.78;101336.84;4995118;28;100684;-34
2022/05/31 09:21:52;;;;;;;10.77;3.40;;;;;;;18.93;47.02;101334.66;4994736;28;96669;-34
2022/05/31 09:24:20;;;;;;;9.32;2.90;;;;;;;19.15;46.45;101338.22;5013174;28;96858;-33
2022/05/31 09:27:01;;;;;;;12.90;3.53;;;;;;;19.37;47.16;101345.41;5013697;28;100985;-34
2022/05/31 09:29:52;;;;;;;11.18;3.65;;;;;;;19.72;44.93;101333.94;5015068;28;100929;-35
2022/05/31 09:32:39;;;;;;;5.93;2.78;;;;;;;19.60;44.47;101337.81;5018997;28;96901;-34
2022/05/31 09:35:20;;;;;;;7.00;3.53;;;;;;;19.37;45.06;101338.00;5033399;28;96794;-34
2022/05/31 09:37:54;;;;;;;8.32;2.85;;;;;;;18.99;43.00;101338.72;5032824;28;97389;-34
2022/05/31 09:40:38;;;;;;;10.02;2.95;;;;;;;18.47;44.87;101338.66;5015051;28;100686;-35
2022/05/31 09:43:25;;;;;;;6.70;2.80;;;;;;;18.17;42.04;101337.59;5032930;28;96535;-35
2022/05/31 09:46:00;;;;;;;7.80;2.33;;;;;;;18.07;46.46;101328.44;5032906;28;96706;-34
2022/05/31 09:48:27;;;;;;;5.57;2.90;;;;;;;18.07;46.47;101327.53;5014290;28;101187;-35
2022/05/31 09:50:58;;;;;;;7.82;2.35;;;;;;;18.20;41.90;101320.00;5032873;28;98011;-34
2022/05/31 09:59:13;;;;;;;8.05;3.08;;;;;;;19.27;44.17;101323.38;5026854;28;97155;-33
2022/05/31 10:01:46;;;;;;;6.97;2.90;;;;;;;19.62;42.36;101322.03;5014416;28;100666;-34
2022/05/31 10:04:32;;;;;;;8.05;3.08;;;;;;;19.53;42.20;101321.88;5014274;28;97576;-35
2022/05/31 10:07:07;;;;;;;8.05;3.45;;;;;;;19.26;42.41;101319.78;5030694;28;96948;-35
2022/05/31 10:09:38;;;;;;;11.70;3.47;;;;;;;19.09;44.54;101318.56;5014289;28;101522;-33
2022/05/31 10:12:26;;;;;;;6.75;2.75;;;;;;;18.90;45.19;101312.97;5014369;28;100882;-33
2022/05/31 10:14:54;;;;;;;7.28;2.72;;;;;;;18.96;45.05;101325.28;5032052;28;96650;-34
2022/05/31 10:17:42;;;;;;;7.13;3.22;;;;;;;18.85;44.00;101309.75;5013835;28;96860;-35
2022/05/31 10:20:12;;;;;;;7.75;3.30;;;;;;;18.92;43.08;101308.19;5030354;28;101115;-34
2022/05/31 10:22:40;;;;;;;6.68;3.08;;;;;;;18.97;45.55;101313.28;5031388;28;100997;-34
2022/05/31 10:25:21;;;;;;;9.48;3.20;;;;;;;18.84;44.35;101311.63;5013565;28;96797;-34
2022/05/31 10:27:47;;;;;;;6.75;2.58;;;;;;;18.70;42.54;101314.72;5014306;28;96856;-35
2022/05/31 10:30:23;;;;;;;4.10;2.13;;;;;;;18.51;44.98;101315.47;5030222;28;100895;-34
2022/05/31 10:33:12;;;;;;;7.70;1.85;;;;;;;18.59;40.31;101317.53;5032206;28;99581;-34
2022/05/31 10:35:42;;;;;;;4.60;1.80;;;;;;;18.94;42.86;101308.06;5031754;28;96904;-34
2022/05/31 10:38:10;;;;;;;3.83;2.22;;;;;;;18.84;39.75;101314.38;5030908;28;96858;-34
2022/05/31 10:41:02;;;;;;;6.57;2.80;;;;;;;18.60;39.79;101306.44;5030589;28;101020;-34
2022/05/31 10:43:27;;;;;;;5.60;2.15;;;;;;;18.62;43.48;101315.41;5014036;28;99325;-34
2022/05/31 10:45:55;;;;;;;5.00;1.70;;;;;;;18.71;43.79;101307.34;5032347;28;96461;-34
2022/05/31 10:48:20;;;;;;;4.07;2.17;;;;;;;19.07;43.79;101312.34;5014129;28;96941;-34
2022/05/31 10:51:13;;;;;;;3.42;2.08;;;;;;;19.43;42.41;101310.00;5031974;28;98471;-34
2022/05/31 10:53:58;;;;;;;5.85;1.98;;;;;;;19.49;42.46;101295.66;5030485;28;101183;-34
2022/05/31 10:57:00;;;;;;;4.32;2.15;;;;;;;19.23;42.33;101298.06;5031795;28;96502;-34
2022/05/31 10:59:41;;;;;;;4.15;2.42;;;;;;;19.17;43.35;101315.13;5031970;28;96646;-34
2022/05/31 11:02:41;;;;;;;9.17;3.10;;;;;;;18.91;43.81;101291.88;5030536;28;100979;-34
2022/05/31 11:05:19;;;;;;;6.28;2.33;;;;;;;18.86;41.99;101306.88;5031780;28;99024;-34
2022/05/31 11:11:29;;;;;;;4.85;2.00;;;;;;;18.81;44.11;101306.44;5030967;28;96975;-35
2022/05/31 11:14:22;;;;;;;5.83;2.90;;;;;;;19.03;43.76;101313.59;5031627;28;98692;-35
2022/05/31 11:16:53;;;;;;;4.18;2.22;;;;;;;19.16;42.19;101309.75;5013882;28;100770;-34
2022/05/31 11:19:31;;;;;;;3.72;2.00;;;;;;;19.02;39.80;101300.00;5031740;28;96577;-34
2022/05/31 11:22:38;;;;;;;4.13;1.70;;;;;;;18.85;42.08;101309.75;5013506;28;96695;-34
2022/05/31 11:25:13;;;;;;;3.72;1.73;;;;;;;18.79;42.87;101311.19;5025992;28;99988;-34
2022/05/31 11:27:48;;;;;;;6.95;2.25;;;;;;;18.76;43.42;101310.53;5011875;28;97366;-34
2022/05/31 11:30:25;;;;;;;5.07;2.25;;;;;;;18.72;44.23;101312.72;5009983;28;96617;-34
2022/05/31 11:33:09;;;;;;;4.05;2.05;;;;;;;18.65;44.66;101306.88;5010183;28;96708;-34
2022/05/31 11:35:37;;;;;;;6.05;2.25;;;;;;;18.66;44.60;101311.38;5011618;28;97497;-34
2022/05/31 11:38:08;;;;;;;7.35;2.15;;;;;;;18.58;44.73;101316.66;5011356;28;97476;-34
2022/05/31 11:40:53;;;;;;;4.55;2.40;;;;;;;18.54;44.11;101317.06;4977297;28;96772;-34
2022/05/31 11:43:50;;;;;;;8.10;2.80;;;;;;;18.52;45.06;101319.97;4993912;28;96747;-34
2022/05/31 11:46:21;;;;;;;8.10;1.85;;;;;;;18.50;45.06;101315.63;5013509;28;97787;-34
2022/05/31 11:48:51;;;;;;;4.93;2.08;;;;;;;18.52;45.40;101309.00;5014759;28;99166;-34
2022/05/31 11:51:34;;;;;;;4.85;1.90;;;;;;;18.54;43.84;101315.19;5014480;28;96706;-34
2022/05/31 11:54:18;;;;;;;14.90;2.45;;;;;;;18.63;44.15;101314.38;4996711;28;96656;-34
2022/05/31 11:57:11;;;;;;;7.72;2.10;;;;;;;18.75;44.82;101311.56;5014438;28;99479;-34
2022/05/31 11:59:46;;;;;;;4.97;2.00;;;;;;;18.75;44.71;101312.44;5014709;28;97901;-34
2022/05/31 12:02:29;;;;;;;3.13;1.92;;;;;;;19.09;42.57;101317.66;4996687;28;96568;-34
2022/05/31 12:05:07;;;;;;;3.15;1.60;;;;;;;19.67;41.80;101306.00;5013316;28;97421;-34
2022/05/31 12:08:08;;;;;;;4.72;1.98;;;;;;;20.04;40.17;101308.06;4995819;28;100976;-34
2022/05/31 12:10:41;;;;;;;5.70;1.80;;;;;;;20.06;38.88;101303.28;4990224;28;97447;-34
2022/05/31 12:13:10;;;;;;;7.10;2.30;;;;;;;19.97;42.44;101317.91;5012939;28;96946;-34
2022/05/31 12:15:38;;;;;;;10.80;2.50;;;;;;;19.82;41.59;101309.22;4996436;28;96868;-34
2022/05/31 12:18:22;;;;;;;5.45;2.47;;;;;;;19.67;41.99;101312.34;4995646;28;100730;-34
2022/05/31 12:21:03;;;;;;;4.75;2.63;;;;;;;19.50;41.99;101305.66;5012973;28;101285;-34
2022/05/31 12:23:41;;;;;;;7.35;3.35;;;;;;;19.33;41.81;101316.44;5014236;28;96591;-34
2022/05/31 12:26:19;;;;;;;5.53;2.85;;;;;;;19.15;41.95;101313.53;5014202;28;96899;-34
2022/05/31 12:28:52;;;;;;;8.05;2.80;;;;;;;19.13;42.75;101307.28;4995838;28;101462;-34
2022/05/31 12:31:25;;;;;;;5.70;2.67;;;;;;;19.43;43.50;101310.00;4996012;28;101013;-34
2022/05/31 12:33:50;;;;;;;3.80;2.22;;;;;;;19.66;42.47;101301.50;4995998;28;96601;-34
2022/05/31 12:36:20;;;;;;;4.15;2.08;;;;;;;19.93;41.47;101309.94;5014665;28;96826;-34
2022/05/31 12:39:04;;;;;;;4.28;2.35;;;;;;;20.03;40.76;101309.09;5013840;28;99419;-34
2022/05/31 12:41:40;;;;;;;6.50;3.05;;;;;;;19.51;41.63;101310.13;5012403;28;101228;-34
2022/05/31 12:44:13;;;;;;;4.10;2.33;;;;;;;19.37;38.52;101310.53;4995464;28;96674;-34
2022/05/31 12:46:47;;;;;;;3.45;1.90;;;;;;;19.24;42.29;101320.94;4996215;28;97353;-34
2022/05/31 12:49:21;;;;;;;5.78;1.88;;;;;;;19.13;42.75;101327.38;5013981;28;97955;-34
2022/05/31 12:54:51;;;;;;;5.45;2.50;;;;;;;18.79;43.20;101319.41;5012317;28;96538;-35
2022/05/31 12:57:30;;;;;;;4.65;1.83;;;;;;;18.77;44.35;101315.94;4994647;28;96874;-34
2022/05/31 12:59:56;;;;;;;4.65;1.92;;;;;;;18.60;45.21;101328.38;5012155;28;101338;-34
2022/05/31 13:02:30;;;;;;;3.72;1.88;;;;;;;18.54;44.36;101336.28;4995040;28;101319;-35
2022/05/31 13:04:58;;;;;;;5.20;2.22;;;;;;;18.43;45.02;101337.22;4995669;28;96663;-34
2022/05/31 13:07:46;;;;;;;4.47;1.45;;;;;;;18.27;43.66;101320.34;5013544;28;96859;-34
2022/05/31 13:10:32;;;;;;;2.75;1.45;;;;;;;18.24;44.63;101335.22;4994766;28;100619;-34
2022/05/31 13:21:17;;;;;;;4.07;1.50;;;;;;;18.52;43.18;101319.06;5013672;28;97146;-34
2022/05/31 13:23:46;;;;;;;5.72;2.63;;;;;;;18.49;43.86;101316.59;5013368;28;97733;-34
2022/05/31 13:26:20;;;;;;;2.45;1.60;;;;;;;18.40;43.55;101310.03;4994959;28;96842;-34
2022/05/31 13:29:01;;;;;;;5.78;1.88;;;;;;;18.33;44.63;101311.56;5013795;28;96503;-34
2022/05/31 13:31:29;;;;;;;3.10;2.03;;;;;;;18.25;45.31;101313.13;4994865;28;100915;-35
2022/05/31 13:34:01;;;;;;;3.85;2.20;;;;;;;18.22;45.27;101294.19;4994897;28;100776;-34
2022/05/31 13:36:29;;;;;;;5.20;1.92;;;;;;;18.30;45.12;101304.50;4994639;28;97163;-34
2022/05/31 13:39:05;;;;;;;5.75;1.92;;;;;;;18.25;44.71;101302.16;4994953;28;96833;-35
2022/05/31 13:41:31;;;;;;;4.97;1.60;;;;;;;18.24;45.11;101299.56;4994731;28;101210;-35
2022/05/31 13:44:01;;;;;;;3.42;1.75;;;;;;;18.54;45.46;101308.84;4994588;28;101122;-35
2022/05/31 13:46:49;;;;;;;4.30;1.70;;;;;;;18.93;44.71;101311.84;4994970;28;96526;-34
2022/05/31 13:49:17;;;;;;;2.22;1.48;;;;;;;19.03;43.96;101310.88;5013117;28;96598;-35
2022/05/31 13:51:51;;;;;;;4.13;2.10;;;;;;;18.94;43.63;101303.44;5011359;28;101254;-35
2022/05/31 13:54:21;;;;;;;3.42;1.67;;;;;;;18.78;44.48;101301.22;4994915;28;101348;-35
2022/05/31 13:56:49;;;;;;;4.53;2.17;;;;;;;18.67;43.57;101304.88;4994786;28;96739;-34
2022/05/31 13:59:43;;;;;;;3.78;2.03;;;;;;;18.55;44.54;101296.88;5012799;28;96730;-34
2022/05/31 14:02:49;;;;;;;7.10;2.08;;;;;;;18.57;44.86;101314.06;4994063;28;101008;-34
2022/05/31 14:05:29;;;;;;;5.43;1.92;;;;;;;18.52;44.91;101303.50;5012757;28;97845;-34
2022/05/31 14:07:55;;;;;;;6.00;2.20;;;;;;;18.53;45.13;101309.84;5012768;28;96580;-34
2022/05/31 14:10:23;;;;;;;4.43;2.17;;;;;;;18.48;45.21;101295.69;4994506;28;96838;-35
2022/05/31 14:12:56;;;;;;;5.40;2.22;;;;;;;18.49;45.08;101292.78;4994070;28;100983;-35
2022/05/31 14:15:29;;;;;;;5.13;1.83;;;;;;;18.54;44.03;101300.59;4994339;28;100763;-34
2022/05/31 14:18:10;;;;;;;5.80;2.30;;;;;;;18.53;43.97;101288.75;4994643;28;96764;-35
2022/05/31 14:20:48;;;;;;;4.50;2.17;;;;;;;18.64;44.19;101294.19;5011614;28;96919;-34
2022/05/31 14:23:22;;;;;;;4.55;2.17;;;;;;;18.62;45.04;101293.44;5012261;28;98017;-35
2022/05/31 14:25:51;;;;;;;4.10;2.35;;;;;;;18.61;45.31;101294.44;4993844;28;100542;-35
2022/05/31 14:28:21;;;;;;;3.70;2.45;;;;;;;18.51;45.58;101301.75;4993821;28;97023;-35
2022/05/31 14:30:56;;;;;;;3.92;2.33;;;;;;;18.51;45.60;101309.13;4994158;28;96963;-34
2022/05/31 14:33:23;;;;;;;6.60;2.33;;;;;;;18.48;46.10;101313.00;5010835;28;101450;-34
2022/05/31 14:35:51;;;;;;;4.28;2.55;;;;;;;18.52;45.42;101297.13;4993858;28;99108;-34
2022/05/31 14:38:31;;;;;;;6.47;2.70;;;;;;;18.75;45.19;101297.84;5012114;28;96519;-34
2022/05/31 14:41:02;;;;;;;4.97;2.35;;;;;;;18.94;44.91;101292.47;5012501;28;96554;-34
2022/05/31 14:43:31;;;;;;;4.25;2.45;;;;;;;19.04;44.51;101295.25;5010635;28;101040;-35
2022/05/31 14:45:58;;;;;;;6.72;2.58;;;;;;;19.06;44.04;101294.09;4994163;28;101160;-35
2022/05/31 14:48:39;;;;;;;7.18;2.45;;;;;;;19.12;44.07;101289.09;4993813;28;96633;-35
2022/05/31 14:51:20;;;;;;;5.88;2.55;;;;;;;19.19;45.47;101293.00;5010792;28;96703;-35
2022/05/31 14:53:51;;;;;;;6.18;2.33;;;;;;;19.16;45.00;101280.41;5011362;28;99476;-35
2022/05/31 14:56:38;;;;;;;5.80;2.73;;;;;;;19.15;44.23;101295.16;5011995;28;98108;-34
2022/05/31 14:59:18;;;;;;;6.68;3.17;;;;;;;19.09;45.20;101295.69;4993799;28;96595;-34
2022/05/31 15:01:46;;;;;;;7.80;2.42;;;;;;;18.99;45.78;101286.56;4993979;28;96881;-34
2022/05/31 15:04:17;;;;;;;4.22;2.40;;;;;;;18.85;45.39;101280.47;4993621;28;100771;-34
2022/05/31 15:06:43;;;;;;;5.88;2.42;;;;;;;18.86;45.54;101290.41;4993762;28;101042;-35
2022/05/31 15:09:13;;;;;;;8.13;2.92;;;;;;;18.78;46.21;101292.09;4993545;28;96822;-34
2022/05/31 15:19:51;;;;;;;4.60;2.95;;;;;;;18.69;45.75;101282.81;5008812;28;96564;-35
2022/05/31 15:22:20;;;;;;;4.28;2.58;;;;;;;18.73;45.38;101286.13;5015337;28;96934;-35
2022/05/31 15:24:48;;;;;;;3.78;2.42;;;;;;;18.71;45.51;101288.13;4996290;28;100932;-35
2022/05/31 15:27:28;;;;;;;6.72;2.65;;;;;;;18.59;45.60;101277.25;4996984;28;100689;-34
2022/05/31 15:29:54;;;;;;;6.20;3.05;;;;;;;18.56;46.81;101287.63;4996801;28;96778;-35
2022/05/31 15:32:21;;;;;;;6.43;3.33;;;;;;;18.42;46.44;101278.75;4997024;28;96931;-35
2022/05/31 15:34:47;;;;;;;7.15;2.65;;;;;;;18.41;46.97;101289.84;4996904;28;101177;-34
2022/05/31 15:37:13;;;;;;;7.80;2.47;;;;;;;18.40;46.74;101289.00;5015408;28;97751;-34
2022/05/31 15:39:40;;;;;;;5.25;2.88;;;;;;;18.41;47.23;101298.09;5013556;28;96599;-34
2022/05/31 15:42:08;;;;;;;5.07;3.05;;;;;;;18.32;47.35;101291.50;4996867;28;96853;-34
2022/05/31 15:44:35;;;;;;;6.05;3.15;;;;;;;18.34;47.64;101302.38;4995997;28;101294;-34
2022/05/31 15:47:00;;;;;;;8.65;3.00;;;;;;;18.19;47.82;101297.22;4996647;28;100769;-34
2022/05/31 15:49:26;;;;;;;9.13;3.10;;;;;;;18.17;47.84;101301.94;5014828;28;96516;-35
2022/05/31 15:51:52;;;;;;;7.80;3.25;;;;;;;18.13;48.05;101310.56;4996848;28;96855;-35
2022/05/31 15:54:25;;;;;;;6.07;2.80;;;;;;;18.06;47.72;101306.63;5014823;28;97354;-34
2022/05/31 15:56:52;;;;;;;6.50;2.83;;;;;;;18.01;48.55;101312.50;4996536;28;100846;-34
2022/05/31 15:59:32;;;;;;;5.28;2.78;;;;;;;17.94;48.39;101314.88;4996515;28;96646;-34
2022/05/31 16:01:58;;;;;;;5.13;2.63;;;;;;;17.86;49.35;101330.25;5014893;28;96616;-34
2022/05/31 16:04:24;;;;;;;7.43;3.25;;;;;;;17.77;50.21;101338.22;4996482;28;101009;-34
2022/05/31 16:06:50;;;;;;;3.95;2.35;;;;;;;17.64;49.81;101326.56;4996293;28;101066;-34
2022/05/31 16:09:18;;;;;;;6.43;2.15;;;;;;;17.51;50.08;101334.06;4995785;28;97219;-34
2022/05/31 16:11:44;;;;;;;2.63;1.73;;;;;;;17.43;50.92;101331.94;4996026;28;96827;-35
2022/05/31 16:14:12;;;;;;;5.43;1.95;;;;;;;17.34;51.25;101343.66;5014359;28;97964;-35
2022/05/31 16:16:38;;;;;;;4.60;2.22;;;;;;;17.25;51.61;101338.94;4996174;28;101177;-34
2022/05/31 16:19:04;;;;;;;2.95;1.77;;;;;;;17.29;51.26;101340.44;5014605;28;96561;-34
2022/05/31 16:21:30;;;;;;;4.03;1.63;;;;;;;17.18;51.32;101328.50;5013023;28;96836;-34
2022/05/31 16:23:55;;;;;;;4.00;1.83;;;;;;;17.15;52.29;101327.88;5014555;28;97347;-35
2022/05/31 16:26:21;;;;;;;3.47;1.80;;;;;;;17.06;51.85;101326.75;5013821;28;97931;-34
2022/05/31 16:28:46;;;;;;;4.90;1.55;;;;;;;17.00;51.61;101323.66;5014083;28;96645;-35
2022/05/31 16:31:12;;;;;;;2.47;1.80;;;;;;;17.03;52.15;101343.44;5014086;28;96779;-34
2022/05/31 16:33:37;;;;;;;5.97;1.73;;;;;;;17.05;52.51;101337.84;4995592;28;98574;-35
2022/05/31 16:36:08;;;;;;;3.40;1.67;;;;;;;17.03;51.64;101328.88;5014033;28;97752;-35
2022/05/31 16:41:24;;;;;;;3.00;1.25;;;;;;;17.15;51.54;101334.22;5012113;28;96728;-34
2022/05/31 16:43:54;;;;;;;4.20;1.58;;;;;;;17.09;51.59;101331.09;5013933;28;97184;-34
2022/05/31 16:46:26;;;;;;;3.05;2.08;;;;;;;17.10;51.81;101336.47;4995832;28;102163;-35
2022/05/31 16:48:52;;;;;;;3.70;1.55;;;;;;;17.03;51.99;101329.75;4995802;28;96649;-34
2022/05/31 16:51:37;;;;;;;2.28;1.35;;;;;;;16.97;52.14;101333.84;4996066;28;96666;-35
2022/05/31 16:54:19;;;;;;;2.70;1.58;;;;;;;16.87;52.30;101334.72;4995658;28;101228;-34